createdAt,value
2023-02-09T00:02:27.979Z,74.05
2023-02-09T00:05:03.009Z,84.78
2023-02-09T00:07:36.594Z,74.20
2023-02-09T00:10:10.765Z,71.38
2023-02-09T00:13:01.627Z,67.53
2023-02-09T00:15:35.124Z,73.43
2023-02-09T00:18:08.716Z,82.50
2023-02-09T00:20:43.987Z,83.00
2023-02-09T00:23:17.801Z,77.63
2023-02-09T00:25:51.648Z,75.40
2023-02-09T00:28:25.272Z,69.50
2023-02-09T00:30:58.919Z,68.75
2023-02-09T00:33:32.577Z,64.88
2023-02-09T00:36:09.301Z,66.90
2023-02-09T00:38:43.422Z,56.00
2023-02-09T00:41:17.941Z,60.72
2023-02-09T00:43:52.032Z,60.45
2023-02-09T00:46:27.417Z,59.20
2023-02-09T00:49:01.060Z,65.20
2023-02-09T00:51:36.186Z,59.80
2023-02-09T00:54:09.828Z,59.58
2023-02-09T00:56:43.454Z,59.13
2023-02-09T00:59:17.028Z,57.17
2023-02-09T01:01:50.834Z,63.03
2023-02-09T01:04:24.386Z,64.60
2023-02-09T01:06:59.325Z,61.17
2023-02-09T01:09:32.895Z,50.55
2023-02-09T01:12:06.837Z,53.35
2023-02-09T01:14:40.589Z,47.50
2023-02-09T01:17:14.550Z,48.65
2023-02-09T01:19:53.210Z,48.03
2023-02-09T01:22:28.517Z,46.67
2023-02-09T01:25:02.123Z,44.00
2023-02-09T01:27:35.724Z,44.72
2023-02-09T01:30:10.399Z,49.35
2023-02-09T01:32:43.945Z,45.30
2023-02-09T01:35:18.224Z,47.20
2023-02-09T01:37:53.160Z,46.25
2023-02-09T01:40:26.632Z,47.58
2023-02-09T01:43:00.173Z,51.67
2023-02-09T01:45:43.161Z,51.47
2023-02-09T01:48:17.285Z,53.80
2023-02-09T01:50:53.838Z,55.97
2023-02-09T01:53:29.483Z,57.53
2023-02-09T01:56:05.780Z,55.80
2023-02-09T01:58:40.500Z,57.05
2023-02-09T02:01:14.620Z,59.88
2023-02-09T02:03:48.157Z,61.15
2023-02-09T02:06:21.877Z,60.28
2023-02-09T02:09:00.248Z,63.33
2023-02-09T02:11:34.248Z,60.38
2023-02-09T02:14:07.906Z,64.95
2023-02-09T02:16:49.621Z,58.17
2023-02-09T02:19:58.996Z,62.63
2023-02-09T02:22:55.806Z,54.30
2023-02-09T02:25:56.127Z,51.05
2023-02-09T02:28:42.041Z,48.03
2023-02-09T02:31:56.215Z,41.08
2023-02-09T02:34:37.206Z,46.08
2023-02-09T02:37:19.834Z,52.53
2023-02-09T02:40:00.707Z,48.00
2023-02-09T02:42:52.059Z,49.35
2023-02-09T02:45:34.852Z,49.28
2023-02-09T02:48:24.045Z,46.97
2023-02-09T02:51:01.933Z,48.47
2023-02-09T02:53:38.833Z,46.28
2023-02-09T02:56:16.646Z,45.67
2023-02-09T02:58:53.255Z,46.75
2023-02-09T03:01:30.993Z,53.17
2023-02-09T03:04:08.419Z,49.58
2023-02-09T03:06:42.114Z,49.10
2023-02-09T03:09:18.519Z,48.78
2023-02-09T03:11:56.226Z,47.10
2023-02-09T03:14:43.245Z,47.28
2023-02-09T03:17:32.712Z,49.15
2023-02-09T03:20:12.095Z,46.05
2023-02-09T03:22:50.001Z,46.83
2023-02-09T03:25:28.755Z,43.83
2023-02-09T03:28:07.716Z,42.17
2023-02-09T03:30:42.591Z,41.67
2023-02-09T03:33:21.717Z,43.22
2023-02-09T03:35:59.106Z,40.03
2023-02-09T03:38:32.658Z,40.03
2023-02-09T03:41:08.011Z,40.50
2023-02-09T03:43:59.112Z,43.17
2023-02-09T03:46:33.644Z,29.47
2023-02-09T03:49:07.266Z,37.97
2023-02-09T03:51:42.675Z,38.75
2023-02-09T03:54:16.447Z,34.72
2023-02-09T03:56:50.188Z,36.83
2023-02-09T03:59:25.355Z,36.78
2023-02-09T04:01:59.856Z,38.60
2023-02-09T04:04:33.814Z,39.30
2023-02-09T04:07:08.849Z,33.78
2023-02-09T04:09:43.774Z,35.90
2023-02-09T04:12:17.564Z,34.58
2023-02-09T04:14:51.273Z,32.30
2023-02-09T04:17:24.924Z,32.10
2023-02-09T04:19:58.514Z,31.90
2023-02-09T04:22:33.573Z,32.03
2023-02-09T04:25:07.968Z,31.40
2023-02-09T04:27:41.556Z,32.63
2023-02-09T04:30:15.547Z,33.13
2023-02-09T04:32:49.130Z,30.15
2023-02-09T04:35:22.918Z,31.70
2023-02-09T04:37:57.901Z,31.08
2023-02-09T04:40:31.439Z,33.45
2023-02-09T04:43:05.042Z,31.98
2023-02-09T04:45:39.920Z,35.83
2023-02-09T04:48:15.498Z,31.15
2023-02-09T04:50:49.565Z,34.80
2023-02-09T04:53:25.899Z,30.55
2023-02-09T04:55:59.395Z,30.95
2023-02-09T04:58:50.295Z,30.95
2023-02-09T05:01:25.563Z,29.60
2023-02-09T05:03:59.199Z,32.42
2023-02-09T05:06:32.796Z,31.20
2023-02-09T05:09:07.681Z,33.70
2023-02-09T05:11:41.180Z,32.15
2023-02-09T05:14:14.796Z,32.90
2023-02-09T05:16:48.385Z,31.98
2023-02-09T05:19:21.970Z,28.98
2023-02-09T05:21:55.522Z,31.33
2023-02-09T05:24:30.718Z,34.53
2023-02-09T05:27:04.413Z,30.63
2023-02-09T05:29:38.058Z,32.35
2023-02-09T05:32:11.805Z,32.15
2023-02-09T05:34:45.457Z,38.38
2023-02-09T05:37:19.083Z,34.58
2023-02-09T05:39:54.249Z,37.85
2023-02-09T05:42:28.141Z,38.17
2023-02-09T05:45:01.703Z,34.15
2023-02-09T05:47:35.578Z,36.80
2023-02-09T05:50:09.510Z,36.42
2023-02-09T05:52:43.119Z,36.65
2023-02-09T05:55:18.286Z,37.80
2023-02-09T05:57:51.795Z,40.45
2023-02-09T06:00:27.166Z,36.25
2023-02-09T06:03:00.861Z,39.75
2023-02-09T06:05:34.426Z,35.42
2023-02-09T06:08:07.873Z,36.70
2023-02-09T06:10:42.693Z,35.15
2023-02-09T06:13:16.529Z,33.60
2023-02-09T06:15:50.208Z,33.50
2023-02-09T06:18:23.795Z,36.08
2023-02-09T06:20:57.299Z,36.67
2023-02-09T06:23:30.805Z,39.17
2023-02-09T06:26:09.680Z,37.20
2023-02-09T06:28:43.532Z,36.08
2023-02-09T06:31:17.209Z,33.47
2023-02-09T06:33:50.862Z,37.33
2023-02-09T06:36:24.461Z,34.50
2023-02-09T06:38:57.980Z,37.78
2023-02-09T06:41:32.986Z,35.97
2023-02-09T06:44:07.052Z,35.08
2023-02-09T06:46:40.674Z,34.80
2023-02-09T06:49:14.181Z,35.33
2023-02-09T06:51:47.768Z,38.88
2023-02-09T06:54:21.405Z,44.60
2023-02-09T06:56:56.692Z,47.10
2023-02-09T06:59:30.360Z,48.67
2023-02-09T07:02:04.408Z,49.10
2023-02-09T07:04:38.081Z,41.55
2023-02-09T07:07:11.574Z,45.05
2023-02-09T07:09:45.057Z,42.78
2023-02-09T07:12:20.131Z,45.03
2023-02-09T07:14:54.226Z,48.10
2023-02-09T07:17:29.713Z,44.85
2023-02-09T07:20:03.831Z,44.17
2023-02-09T07:22:37.844Z,48.20
2023-02-09T07:25:11.657Z,43.42
2023-02-09T07:27:47.076Z,47.85
2023-02-09T07:30:20.999Z,52.72
2023-02-09T07:32:54.502Z,46.17
2023-02-09T07:35:28.149Z,53.13
2023-02-09T07:38:01.680Z,52.33
2023-02-09T07:40:35.317Z,57.55
2023-02-09T07:43:10.385Z,61.03
2023-02-09T07:45:44.345Z,62.88
2023-02-09T07:48:18.184Z,63.80
2023-02-09T07:50:52.239Z,65.22
2023-02-09T07:53:26.365Z,53.65
2023-02-09T07:56:00.194Z,49.95
2023-02-09T07:58:35.389Z,54.33
2023-02-09T08:01:12.022Z,54.55
2023-02-09T08:03:48.340Z,61.88
2023-02-09T08:06:40.665Z,55.30
2023-02-09T08:09:17.454Z,53.13
2023-02-09T08:11:55.432Z,53.83
2023-02-09T08:14:36.047Z,47.65
2023-02-09T08:17:24.351Z,37.17
2023-02-09T08:20:03.313Z,51.70
2023-02-09T08:22:41.449Z,59.05
2023-02-09T08:25:17.525Z,59.58
2023-02-09T08:27:52.352Z,65.97
2023-02-09T08:30:27.431Z,60.75
2023-02-09T08:33:01.010Z,40.72
2023-02-09T08:35:34.580Z,44.50
2023-02-09T08:38:08.220Z,40.15
2023-02-09T08:40:44.142Z,39.65
2023-02-09T08:43:18.180Z,38.10
2023-02-09T08:45:53.374Z,37.50
2023-02-09T08:48:26.926Z,37.15
2023-02-09T08:51:00.744Z,36.38
2023-02-09T08:53:34.273Z,33.60
2023-02-09T08:56:08.862Z,36.42
2023-02-09T08:58:42.483Z,35.35
2023-02-09T09:01:17.568Z,34.58
2023-02-09T09:03:51.246Z,36.35
2023-02-09T09:06:24.834Z,32.38
2023-02-09T09:08:58.354Z,33.67
2023-02-09T09:11:31.857Z,33.95
2023-02-09T09:14:05.411Z,33.30
2023-02-09T09:16:40.405Z,28.98
2023-02-09T09:19:15.755Z,35.65
2023-02-09T09:21:49.820Z,35.63
2023-02-09T09:24:28.121Z,32.20
2023-02-09T09:27:01.693Z,38.47
2023-02-09T09:29:35.538Z,28.70
2023-02-09T09:32:13.987Z,36.50
2023-02-09T09:34:47.788Z,32.22
2023-02-09T09:37:21.780Z,29.90
2023-02-09T09:39:56.226Z,30.65
2023-02-09T09:42:36.734Z,31.20
2023-02-09T09:45:16.308Z,31.77
2023-02-09T09:47:57.243Z,28.98
2023-02-09T09:50:39.786Z,31.00
2023-02-09T09:54:00.946Z,28.50
2023-02-09T09:56:35.380Z,23.58
2023-02-09T09:59:18.358Z,21.75
2023-02-09T10:01:53.416Z,25.08
2023-02-09T10:04:30.821Z,32.33
2023-02-09T10:07:14.537Z,22.30
2023-02-09T10:23:44.953Z,22.92
2023-02-09T10:26:23.562Z,23.27
2023-02-09T10:28:59.451Z,22.52
2023-02-09T10:31:35.181Z,21.75
2023-02-09T10:34:17.645Z,22.75
2023-02-09T10:36:53.781Z,23.95
2023-02-09T10:39:57.460Z,23.75
2023-02-09T10:42:40.613Z,24.63
2023-02-09T10:45:23.071Z,21.65
2023-02-09T10:48:03.012Z,20.08
2023-02-09T10:50:52.004Z,19.98
2023-02-09T10:53:30.230Z,20.50
2023-02-09T10:56:13.737Z,17.27
2023-02-09T10:58:52.620Z,19.17
2023-02-09T11:01:29.878Z,17.92
2023-02-09T11:04:06.920Z,19.10
2023-02-09T11:06:49.681Z,18.60
2023-02-09T11:09:28.148Z,20.30
2023-02-09T11:12:03.990Z,19.02
2023-02-09T11:14:37.659Z,20.30
2023-02-09T11:17:21.616Z,18.63
2023-02-09T11:20:20.978Z,19.17
2023-02-09T11:23:21.949Z,19.92
2023-02-09T11:25:59.591Z,17.55
2023-02-09T11:28:43.581Z,18.00
2023-02-09T11:31:55.924Z,21.08
2023-02-09T11:34:44.037Z,20.60
2023-02-09T11:37:27.405Z,17.42
2023-02-09T11:40:08.999Z,17.30
2023-02-09T11:42:49.465Z,20.38
2023-02-09T11:45:31.429Z,19.38
2023-02-09T11:48:13.017Z,19.85
2023-02-09T11:50:57.984Z,19.05
2023-02-09T11:53:39.573Z,16.40
2023-02-09T11:56:15.749Z,17.20
2023-02-09T11:58:56.073Z,17.67
2023-02-09T12:01:41.312Z,19.63
2023-02-09T12:04:19.991Z,21.65
2023-02-09T12:06:56.490Z,18.67
2023-02-09T12:10:07.796Z,21.77
2023-02-09T12:12:50.171Z,16.10
2023-02-09T12:15:27.918Z,18.15
2023-02-09T12:18:07.000Z,16.63
2023-02-09T12:20:52.872Z,17.92
2023-02-09T12:23:32.748Z,18.25
2023-02-09T12:26:28.703Z,18.52
2023-02-09T12:29:23.189Z,16.15
2023-02-09T12:32:43.419Z,14.50
2023-02-09T12:35:29.450Z,17.63
2023-02-09T12:38:18.510Z,20.20
2023-02-09T12:41:04.339Z,17.88
2023-02-09T12:43:38.707Z,23.98
2023-02-09T12:46:26.625Z,21.98
2023-02-09T12:49:21.262Z,21.02
2023-02-09T12:52:17.559Z,19.10
2023-02-09T12:54:53.423Z,15.73
2023-02-09T12:57:56.914Z,15.80
2023-02-09T13:00:55.909Z,13.98
2023-02-09T13:03:30.710Z,16.35
2023-02-09T13:06:11.454Z,15.32
2023-02-09T13:08:53.306Z,12.40
2023-02-09T13:11:34.207Z,12.17
2023-02-09T13:14:10.461Z,12.93
2023-02-09T13:17:07.857Z,14.55
2023-02-09T13:20:05.936Z,12.07
2023-02-09T13:22:58.634Z,13.20
2023-02-09T13:25:36.883Z,13.25
2023-02-09T13:28:17.303Z,12.73
2023-02-09T13:30:50.991Z,11.32
2023-02-09T13:33:41.690Z,13.82
2023-02-09T13:36:27.226Z,10.90
2023-02-09T13:39:00.884Z,10.55
2023-02-09T13:41:40.790Z,10.25
2023-02-09T13:44:23.305Z,10.95
2023-02-09T13:46:58.552Z,9.27
2023-02-09T13:49:32.175Z,9.63
2023-02-09T13:52:14.123Z,10.88
2023-02-09T13:54:47.812Z,8.47
2023-02-09T13:57:32.110Z,10.00
2023-02-09T14:00:17.080Z,8.68
2023-02-09T14:02:56.545Z,7.32
2023-02-09T14:05:39.550Z,6.53
2023-02-09T14:08:16.047Z,7.03
2023-02-09T14:10:54.486Z,6.07
2023-02-09T14:13:35.155Z,4.78
2023-02-09T14:16:09.527Z,4.60
2023-02-09T14:18:49.434Z,4.20
2023-02-09T14:21:37.353Z,7.95
2023-02-09T14:24:18.883Z,6.80
2023-02-09T14:26:55.292Z,9.02
2023-02-09T14:29:31.990Z,9.18
2023-02-09T14:32:32.298Z,8.25
2023-02-09T14:35:21.804Z,7.72
2023-02-09T14:37:57.342Z,10.23
2023-02-09T14:40:34.340Z,9.70
2023-02-09T14:43:24.942Z,5.72
2023-02-09T14:46:02.178Z,5.50
2023-02-09T14:48:35.912Z,7.03
2023-02-09T14:51:15.920Z,8.10
2023-02-09T14:53:50.181Z,7.55
2023-02-09T14:56:28.521Z,7.80
2023-02-09T14:59:02.130Z,11.07
2023-02-09T15:01:37.146Z,7.30
2023-02-09T15:04:10.860Z,7.25
2023-02-09T15:06:45.998Z,6.85
2023-02-09T15:09:23.471Z,6.68
2023-02-09T15:12:05.986Z,6.93
2023-02-09T15:14:43.240Z,9.10
2023-02-09T15:17:21.040Z,9.70
2023-02-09T15:19:54.915Z,8.85
2023-02-09T15:22:28.474Z,9.85
2023-02-09T15:25:01.928Z,8.98
2023-02-09T15:27:37.759Z,9.25
2023-02-09T15:30:17.978Z,10.93
2023-02-09T15:32:53.549Z,12.13
2023-02-09T15:35:28.974Z,9.93
2023-02-09T15:38:03.287Z,10.27
2023-02-09T15:40:58.815Z,10.80
2023-02-09T15:43:49.916Z,10.15
2023-02-09T15:46:40.668Z,11.25
2023-02-09T15:49:15.588Z,14.05
2023-02-09T15:51:49.158Z,10.40
2023-02-09T15:54:27.897Z,18.05
2023-02-09T15:57:02.327Z,21.85
2023-02-09T15:59:35.971Z,21.25
2023-02-09T16:02:13.794Z,29.25
2023-02-09T16:04:49.195Z,27.23
2023-02-09T16:07:26.141Z,24.65
2023-02-09T16:09:59.683Z,24.70
2023-02-09T16:12:33.309Z,25.00
2023-02-09T16:15:14.675Z,23.10
2023-02-09T16:17:48.201Z,21.05
2023-02-09T16:20:25.613Z,22.95
2023-02-09T16:23:11.735Z,20.88
2023-02-09T16:25:50.029Z,35.15
2023-02-09T16:28:23.861Z,23.02
2023-02-09T16:30:59.226Z,27.90
2023-02-09T16:33:32.839Z,27.15
2023-02-09T16:36:14.837Z,25.38
2023-02-09T16:38:48.596Z,30.85
2023-02-09T16:41:39.362Z,30.67
2023-02-09T16:44:17.621Z,28.35
2023-02-09T16:46:53.600Z,27.98
2023-02-09T16:49:36.161Z,24.80
2023-02-09T16:52:17.368Z,26.33
2023-02-09T16:54:53.352Z,24.58
2023-02-09T16:57:28.888Z,24.95
2023-02-09T17:00:02.406Z,29.55
2023-02-09T17:02:39.672Z,25.05
2023-02-09T17:05:19.184Z,27.25
2023-02-09T17:07:57.334Z,32.95
2023-02-09T17:10:36.092Z,31.50
2023-02-09T17:13:09.651Z,31.02
2023-02-09T17:15:46.089Z,28.08
2023-02-09T17:18:22.796Z,41.40
2023-02-09T17:20:58.676Z,42.40
2023-02-09T17:23:33.766Z,35.70
2023-02-09T17:26:07.390Z,32.50
2023-02-09T17:28:42.978Z,40.92
2023-02-09T17:31:19.736Z,39.70
2023-02-09T17:33:55.318Z,32.85
2023-02-09T17:36:30.681Z,37.22
2023-02-09T17:39:06.370Z,28.67
2023-02-09T17:41:44.904Z,29.85
2023-02-09T17:44:34.896Z,32.58
2023-02-09T17:47:17.589Z,30.00
2023-02-09T17:49:51.668Z,36.75
2023-02-09T17:52:25.378Z,42.65
2023-02-09T17:55:00.471Z,46.45
2023-02-09T17:57:34.028Z,38.13
2023-02-09T18:00:08.659Z,31.58
2023-02-09T18:02:42.764Z,33.47
2023-02-09T18:05:21.498Z,38.38
2023-02-09T18:07:55.598Z,41.70
2023-02-09T18:10:31.270Z,32.05
2023-02-09T18:13:05.337Z,34.33
2023-02-09T18:15:40.557Z,35.38
2023-02-09T18:18:14.183Z,32.42
2023-02-09T18:20:48.413Z,47.65
2023-02-09T18:23:23.244Z,59.45
2023-02-09T18:25:58.300Z,42.55
2023-02-09T18:28:32.161Z,46.40
2023-02-09T18:31:06.524Z,51.65
2023-02-09T18:33:40.469Z,44.30
2023-02-09T18:36:15.545Z,40.78
2023-02-09T18:38:51.015Z,41.05
2023-02-09T18:41:26.148Z,47.47
2023-02-09T18:44:02.589Z,48.38
2023-02-09T18:46:36.482Z,48.78
2023-02-09T18:49:13.233Z,46.15
2023-02-09T18:51:46.955Z,44.13
2023-02-09T18:54:20.758Z,52.33
2023-02-09T18:56:55.988Z,53.20
2023-02-09T18:59:30.794Z,60.45
2023-02-09T19:02:04.606Z,70.07
2023-02-09T19:04:42.311Z,66.18
2023-02-09T19:07:17.089Z,64.60
2023-02-09T19:09:51.023Z,78.13
2023-02-09T19:12:28.452Z,87.50
2023-02-09T19:15:02.724Z,65.22
2023-02-09T19:17:37.255Z,71.45
2023-02-09T19:20:17.624Z,75.20
2023-02-09T19:22:52.647Z,80.32
2023-02-09T19:25:29.198Z,80.45
2023-02-09T19:28:07.878Z,73.50
2023-02-09T19:30:43.586Z,69.72
2023-02-09T19:33:19.434Z,83.20
2023-02-09T19:36:00.502Z,80.50
2023-02-09T19:38:35.627Z,91.50
2023-02-09T19:41:15.057Z,97.30
2023-02-09T19:43:51.664Z,82.57
2023-02-09T19:46:26.455Z,93.20
2023-02-09T19:49:01.070Z,76.38
2023-02-09T19:51:34.931Z,84.97
2023-02-09T19:54:09.108Z,83.57
2023-02-09T19:56:45.344Z,89.35
2023-02-09T19:59:20.421Z,88.35
2023-02-09T20:01:54.144Z,87.05
2023-02-09T20:04:27.963Z,91.07
2023-02-09T20:07:03.667Z,94.15
2023-02-09T20:09:37.684Z,98.15
2023-02-09T20:12:11.482Z,91.53
2023-02-09T20:14:46.613Z,100.28
2023-02-09T20:17:20.458Z,78.03
2023-02-09T20:19:54.112Z,65.32
2023-02-09T20:22:28.318Z,68.15
2023-02-09T20:25:01.869Z,68.38
2023-02-09T20:27:35.640Z,72.45
2023-02-09T20:30:11.982Z,68.95
2023-02-09T20:32:45.595Z,72.20
2023-02-09T20:35:19.438Z,77.30
2023-02-09T20:37:53.907Z,73.50
2023-02-09T20:40:27.565Z,66.05
2023-02-09T20:43:18.308Z,58.75
2023-02-09T20:46:10.480Z,59.75
2023-02-09T20:48:44.372Z,61.80
2023-02-09T20:51:18.878Z,85.03
2023-02-09T20:53:52.516Z,92.18
2023-02-09T20:56:26.410Z,83.80
2023-02-09T20:59:00.963Z,82.97
2023-02-09T21:01:37.776Z,107.72
2023-02-09T21:04:11.491Z,92.85
2023-02-09T21:06:45.557Z,88.97
2023-02-09T21:09:19.282Z,88.30
2023-02-09T21:11:53.253Z,91.93
2023-02-09T21:14:40.075Z,95.93
2023-02-09T21:17:16.531Z,100.43
2023-02-09T21:19:50.361Z,105.82
2023-02-09T21:22:24.346Z,103.03
2023-02-09T21:24:58.036Z,95.28
2023-02-09T21:27:32.941Z,83.72
2023-02-09T21:30:07.551Z,82.00
2023-02-09T21:32:42.759Z,74.90
2023-02-09T21:35:17.272Z,71.95
2023-02-09T21:37:50.919Z,80.70
2023-02-09T21:40:24.913Z,80.03
2023-02-09T21:42:58.519Z,77.80
2023-02-09T21:45:32.293Z,81.70
2023-02-09T21:48:09.192Z,74.15
2023-02-09T21:50:43.072Z,79.43
2023-02-09T21:53:16.737Z,75.10
2023-02-09T21:55:50.333Z,73.50
2023-02-09T21:58:24.073Z,84.03
2023-02-09T22:00:58.733Z,71.72
2023-02-09T22:03:34.313Z,70.05
2023-02-09T22:06:08.581Z,72.28
2023-02-09T22:08:42.546Z,68.60
2023-02-09T22:11:16.175Z,64.85
2023-02-09T22:13:49.759Z,60.20
2023-02-09T22:16:25.022Z,75.90
2023-02-09T22:19:00.657Z,78.72
2023-02-09T22:21:34.262Z,75.63
2023-02-09T22:24:08.025Z,70.28
2023-02-09T22:26:42.012Z,73.10
2023-02-09T22:29:16.944Z,79.75
2023-02-09T22:31:50.739Z,80.70
2023-02-09T22:34:25.819Z,83.15
2023-02-09T22:36:59.560Z,76.10
2023-02-09T22:39:33.291Z,65.32
2023-02-09T22:42:07.244Z,70.60
2023-02-09T22:44:40.780Z,90.32
2023-02-09T22:47:14.360Z,85.32
2023-02-09T22:49:49.333Z,85.70
2023-02-09T22:52:23.098Z,83.72
2023-02-09T22:54:57.984Z,81.20
2023-02-09T22:57:31.580Z,104.57
2023-02-09T23:00:07.733Z,87.53
2023-02-09T23:02:41.318Z,85.40
2023-02-09T23:05:16.379Z,101.13
2023-02-09T23:07:49.925Z,96.13
2023-02-09T23:10:23.720Z,89.10
2023-02-09T23:12:57.299Z,75.75
2023-02-09T23:15:30.991Z,82.35
2023-02-09T23:18:04.631Z,75.30
2023-02-09T23:20:39.560Z,91.10
2023-02-09T23:23:13.048Z,94.68
2023-02-09T23:25:46.858Z,89.60
2023-02-09T23:28:20.635Z,85.95
2023-02-09T23:30:54.245Z,87.28
2023-02-09T23:33:27.817Z,86.85
2023-02-09T23:36:05.885Z,74.53
2023-02-09T23:38:39.603Z,74.38
2023-02-09T23:41:16.551Z,75.10
2023-02-09T23:43:50.719Z,82.32
2023-02-09T23:46:28.328Z,82.85
2023-02-09T23:49:02.164Z,89.75
2023-02-09T23:51:37.278Z,92.25
2023-02-09T23:54:12.246Z,82.70
2023-02-09T23:56:46.736Z,81.15
2023-02-09T23:59:20.219Z,77.38
